sensor_id;sensor_type;location;lat;lon;timestamp;P1;durP1;ratioP1;P2;durP2;ratioP2
29906;SDS011;16776;50.958;10.994;2023-04-07T00:00:21;7.78;;;4.55;;
29906;SDS011;16776;50.958;10.994;2023-04-07T00:02:47;6.93;;;4.07;;
29906;SDS011;16776;50.958;10.994;2023-04-07T00:05:14;7.07;;;3.97;;
29906;SDS011;16776;50.958;10.994;2023-04-07T00:07:42;9.18;;;4.72;;
29906;SDS011;16776;50.958;10.994;2023-04-07T00:10:09;8.00;;;4.53;;
29906;SDS011;16776;50.958;10.994;2023-04-07T00:12:35;8.23;;;4.68;;
29906;SDS011;16776;50.958;10.994;2023-04-07T00:15:02;5.93;;;3.72;;
29906;SDS011;16776;50.958;10.994;2023-04-07T00:17:29;5.30;;;3.83;;
29906;SDS011;16776;50.958;10.994;2023-04-07T00:19:55;5.72;;;3.83;;
29906;SDS011;16776;50.958;10.994;2023-04-07T00:22:22;6.45;;;4.15;;
29906;SDS011;16776;50.958;10.994;2023-04-07T00:24:50;6.93;;;4.22;;
29906;SDS011;16776;50.958;10.994;2023-04-07T00:27:18;6.85;;;4.43;;
29906;SDS011;16776;50.958;10.994;2023-04-07T00:29:45;5.80;;;3.83;;
29906;SDS011;16776;50.958;10.994;2023-04-07T00:32:11;7.32;;;4.03;;
29906;SDS011;16776;50.958;10.994;2023-04-07T00:34:38;5.80;;;4.13;;
29906;SDS011;16776;50.958;10.994;2023-04-07T00:37:04;6.22;;;3.67;;
29906;SDS011;16776;50.958;10.994;2023-04-07T00:39:31;6.05;;;4.03;;
29906;SDS011;16776;50.958;10.994;2023-04-07T00:41:59;4.65;;;3.90;;
29906;SDS011;16776;50.958;10.994;2023-04-07T00:44:26;5.72;;;3.75;;
29906;SDS011;16776;50.958;10.994;2023-04-07T00:46:52;5.97;;;3.72;;
29906;SDS011;16776;50.958;10.994;2023-04-07T00:49:19;5.97;;;3.85;;
29906;SDS011;16776;50.958;10.994;2023-04-07T00:51:49;6.05;;;3.22;;
29906;SDS011;16776;50.958;10.994;2023-04-07T00:54:16;4.35;;;3.15;;
29906;SDS011;16776;50.958;10.994;2023-04-07T00:56:43;4.78;;;3.10;;
29906;SDS011;16776;50.958;10.994;2023-04-07T00:59:12;5.88;;;2.92;;
29906;SDS011;16776;50.958;10.994;2023-04-07T01:01:39;5.50;;;3.72;;
29906;SDS011;16776;50.958;10.994;2023-04-07T01:04:11;5.20;;;3.15;;
29906;SDS011;16776;50.958;10.994;2023-04-07T01:06:49;5.47;;;2.90;;
29906;SDS011;16776;50.958;10.994;2023-04-07T01:09:24;3.55;;;2.72;;
29906;SDS011;16776;50.958;10.994;2023-04-07T01:11:55;4.23;;;2.60;;
29906;SDS011;16776;50.958;10.994;2023-04-07T01:14:31;5.20;;;3.17;;
29906;SDS011;16776;50.958;10.994;2023-04-07T01:17:02;1.90;;;1.70;;
29906;SDS011;16776;50.958;10.994;2023-04-07T01:19:32;3.17;;;2.45;;
29906;SDS011;16776;50.958;10.994;2023-04-07T01:22:01;5.22;;;3.47;;
29906;SDS011;16776;50.958;10.994;2023-04-07T01:24:40;5.38;;;3.55;;
29906;SDS011;16776;50.958;10.994;2023-04-07T01:27:24;5.20;;;3.13;;
29906;SDS011;16776;50.958;10.994;2023-04-07T01:30:03;4.30;;;3.00;;
29906;SDS011;16776;50.958;10.994;2023-04-07T01:32:35;4.20;;;2.92;;
29906;SDS011;16776;50.958;10.994;2023-04-07T01:35:04;4.13;;;2.80;;
29906;SDS011;16776;50.958;10.994;2023-04-07T01:37:35;5.68;;;3.70;;
29906;SDS011;16776;50.958;10.994;2023-04-07T01:40:04;5.88;;;3.95;;
29906;SDS011;16776;50.958;10.994;2023-04-07T01:42:33;4.97;;;2.75;;
29906;SDS011;16776;50.958;10.994;2023-04-07T01:45:01;5.38;;;3.78;;
29906;SDS011;16776;50.958;10.994;2023-04-07T01:47:30;5.93;;;3.53;;
29906;SDS011;16776;50.958;10.994;2023-04-07T01:49:57;3.50;;;2.97;;
29906;SDS011;16776;50.958;10.994;2023-04-07T01:52:28;6.68;;;3.38;;
29906;SDS011;16776;50.958;10.994;2023-04-07T01:54:55;4.38;;;2.95;;
29906;SDS011;16776;50.958;10.994;2023-04-07T01:57:22;5.13;;;3.55;;
29906;SDS011;16776;50.958;10.994;2023-04-07T01:59:48;4.60;;;3.03;;
29906;SDS011;16776;50.958;10.994;2023-04-07T02:02:16;4.85;;;3.42;;
29906;SDS011;16776;50.958;10.994;2023-04-07T02:04:44;5.22;;;3.30;;
29906;SDS011;16776;50.958;10.994;2023-04-07T02:07:18;4.40;;;3.38;;
29906;SDS011;16776;50.958;10.994;2023-04-07T02:09:47;4.03;;;2.97;;
29906;SDS011;16776;50.958;10.994;2023-04-07T02:12:16;4.35;;;2.75;;
29906;SDS011;16776;50.958;10.994;2023-04-07T02:14:43;4.93;;;2.95;;
29906;SDS011;16776;50.958;10.994;2023-04-07T02:17:09;4.28;;;2.95;;
29906;SDS011;16776;50.958;10.994;2023-04-07T02:19:41;2.90;;;2.45;;
29906;SDS011;16776;50.958;10.994;2023-04-07T02:22:09;3.42;;;2.97;;
29906;SDS011;16776;50.958;10.994;2023-04-07T02:24:39;6.85;;;2.85;;
29906;SDS011;16776;50.958;10.994;2023-04-07T02:27:06;3.92;;;2.60;;
29906;SDS011;16776;50.958;10.994;2023-04-07T02:29:33;4.60;;;3.38;;
29906;SDS011;16776;50.958;10.994;2023-04-07T02:31:59;4.88;;;3.15;;
29906;SDS011;16776;50.958;10.994;2023-04-07T02:34:26;5.72;;;3.13;;
29906;SDS011;16776;50.958;10.994;2023-04-07T02:36:54;4.93;;;2.80;;
29906;SDS011;16776;50.958;10.994;2023-04-07T02:39:20;4.38;;;2.78;;
29906;SDS011;16776;50.958;10.994;2023-04-07T02:41:47;3.50;;;2.50;;
29906;SDS011;16776;50.958;10.994;2023-04-07T02:44:13;6.15;;;2.85;;
29906;SDS011;16776;50.958;10.994;2023-04-07T02:46:40;4.70;;;2.65;;
29906;SDS011;16776;50.958;10.994;2023-04-07T02:49:06;4.40;;;2.53;;
29906;SDS011;16776;50.958;10.994;2023-04-07T02:51:33;3.33;;;2.38;;
29906;SDS011;16776;50.958;10.994;2023-04-07T02:54:01;3.33;;;2.15;;
29906;SDS011;16776;50.958;10.994;2023-04-07T02:56:27;4.30;;;2.70;;
29906;SDS011;16776;50.958;10.994;2023-04-07T02:58:55;2.97;;;2.40;;
29906;SDS011;16776;50.958;10.994;2023-04-07T03:01:21;3.80;;;2.78;;
29906;SDS011;16776;50.958;10.994;2023-04-07T03:03:48;4.13;;;2.90;;
29906;SDS011;16776;50.958;10.994;2023-04-07T03:06:14;3.70;;;2.78;;
29906;SDS011;16776;50.958;10.994;2023-04-07T03:08:41;3.72;;;3.15;;
29906;SDS011;16776;50.958;10.994;2023-04-07T03:11:09;4.57;;;2.80;;
29906;SDS011;16776;50.958;10.994;2023-04-07T03:13:36;4.43;;;2.75;;
29906;SDS011;16776;50.958;10.994;2023-04-07T03:16:02;4.75;;;3.05;;
29906;SDS011;16776;50.958;10.994;2023-04-07T03:18:29;4.53;;;3.00;;
29906;SDS011;16776;50.958;10.994;2023-04-07T03:20:56;3.20;;;2.90;;
29906;SDS011;16776;50.958;10.994;2023-04-07T03:23:22;4.15;;;2.70;;
29906;SDS011;16776;50.958;10.994;2023-04-07T03:25:49;3.25;;;2.45;;
29906;SDS011;16776;50.958;10.994;2023-04-07T03:28:17;4.97;;;2.78;;
29906;SDS011;16776;50.958;10.994;2023-04-07T03:30:43;4.72;;;3.15;;
29906;SDS011;16776;50.958;10.994;2023-04-07T03:33:10;6.43;;;2.83;;
29906;SDS011;16776;50.958;10.994;2023-04-07T03:35:37;3.65;;;2.60;;
29906;SDS011;16776;50.958;10.994;2023-04-07T03:38:03;2.92;;;2.35;;
29906;SDS011;16776;50.958;10.994;2023-04-07T03:40:30;2.90;;;2.13;;
29906;SDS011;16776;50.958;10.994;2023-04-07T03:42:57;3.90;;;2.38;;
29906;SDS011;16776;50.958;10.994;2023-04-07T03:45:25;2.42;;;1.95;;
29906;SDS011;16776;50.958;10.994;2023-04-07T03:47:54;4.28;;;2.75;;
29906;SDS011;16776;50.958;10.994;2023-04-07T03:50:21;2.80;;;1.90;;
29906;SDS011;16776;50.958;10.994;2023-04-07T03:52:47;2.90;;;2.20;;
29906;SDS011;16776;50.958;10.994;2023-04-07T03:55:14;3.50;;;1.98;;
29906;SDS011;16776;50.958;10.994;2023-04-07T03:57:40;3.55;;;2.25;;
29906;SDS011;16776;50.958;10.994;2023-04-07T04:00:07;4.50;;;2.60;;
29906;SDS011;16776;50.958;10.994;2023-04-07T04:02:36;3.63;;;2.22;;
29906;SDS011;16776;50.958;10.994;2023-04-07T04:05:03;3.95;;;2.30;;
29906;SDS011;16776;50.958;10.994;2023-04-07T04:07:29;3.60;;;2.25;;
29906;SDS011;16776;50.958;10.994;2023-04-07T04:09:57;3.80;;;2.22;;
29906;SDS011;16776;50.958;10.994;2023-04-07T04:12:24;4.35;;;2.63;;
29906;SDS011;16776;50.958;10.994;2023-04-07T04:14:51;2.38;;;2.03;;
29906;SDS011;16776;50.958;10.994;2023-04-07T04:17:18;4.97;;;3.13;;
29906;SDS011;16776;50.958;10.994;2023-04-07T04:19:47;4.57;;;3.08;;
29906;SDS011;16776;50.958;10.994;2023-04-07T04:22:14;4.45;;;2.55;;
29906;SDS011;16776;50.958;10.994;2023-04-07T04:24:40;3.90;;;2.67;;
29906;SDS011;16776;50.958;10.994;2023-04-07T04:27:07;2.92;;;2.35;;
29906;SDS011;16776;50.958;10.994;2023-04-07T04:29:33;6.97;;;3.10;;
29906;SDS011;16776;50.958;10.994;2023-04-07T04:32:00;4.15;;;2.55;;
29906;SDS011;16776;50.958;10.994;2023-04-07T04:34:27;3.70;;;2.60;;
29906;SDS011;16776;50.958;10.994;2023-04-07T04:36:55;4.72;;;2.75;;
29906;SDS011;16776;50.958;10.994;2023-04-07T04:39:24;3.97;;;3.00;;
29906;SDS011;16776;50.958;10.994;2023-04-07T04:41:51;4.82;;;2.60;;
29906;SDS011;16776;50.958;10.994;2023-04-07T04:44:20;2.45;;;2.13;;
29906;SDS011;16776;50.958;10.994;2023-04-07T04:46:47;3.15;;;2.15;;
29906;SDS011;16776;50.958;10.994;2023-04-07T04:49:13;4.28;;;2.53;;
29906;SDS011;16776;50.958;10.994;2023-04-07T04:51:40;4.65;;;2.88;;
29906;SDS011;16776;50.958;10.994;2023-04-07T04:54:08;3.72;;;2.72;;
29906;SDS011;16776;50.958;10.994;2023-04-07T04:56:35;4.28;;;2.50;;
29906;SDS011;16776;50.958;10.994;2023-04-07T04:59:01;2.90;;;2.20;;
29906;SDS011;16776;50.958;10.994;2023-04-07T05:01:28;2.72;;;2.20;;
29906;SDS011;16776;50.958;10.994;2023-04-07T05:03:55;4.93;;;2.40;;
29906;SDS011;16776;50.958;10.994;2023-04-07T05:06:21;2.97;;;2.15;;
29906;SDS011;16776;50.958;10.994;2023-04-07T05:08:48;3.00;;;2.08;;
29906;SDS011;16776;50.958;10.994;2023-04-07T05:11:16;3.33;;;2.40;;
29906;SDS011;16776;50.958;10.994;2023-04-07T05:13:42;4.30;;;2.50;;
29906;SDS011;16776;50.958;10.994;2023-04-07T05:16:09;3.97;;;2.22;;
29906;SDS011;16776;50.958;10.994;2023-04-07T05:18:38;2.67;;;2.45;;
29906;SDS011;16776;50.958;10.994;2023-04-07T05:21:05;5.80;;;2.63;;
29906;SDS011;16776;50.958;10.994;2023-04-07T05:23:32;3.22;;;2.25;;
29906;SDS011;16776;50.958;10.994;2023-04-07T05:25:58;3.72;;;2.72;;
29906;SDS011;16776;50.958;10.994;2023-04-07T05:28:27;3.22;;;2.45;;
29906;SDS011;16776;50.958;10.994;2023-04-07T05:30:53;3.50;;;2.45;;
29906;SDS011;16776;50.958;10.994;2023-04-07T05:33:20;2.65;;;2.28;;
29906;SDS011;16776;50.958;10.994;2023-04-07T05:35:46;2.83;;;2.20;;
29906;SDS011;16776;50.958;10.994;2023-04-07T05:38:15;2.90;;;2.58;;
29906;SDS011;16776;50.958;10.994;2023-04-07T05:40:41;3.55;;;2.25;;
29906;SDS011;16776;50.958;10.994;2023-04-07T05:43:08;3.55;;;2.42;;
29906;SDS011;16776;50.958;10.994;2023-04-07T05:45:36;4.50;;;3.05;;
29906;SDS011;16776;50.958;10.994;2023-04-07T05:48:03;5.45;;;3.13;;
29906;SDS011;16776;50.958;10.994;2023-04-07T05:50:29;3.70;;;2.72;;
29906;SDS011;16776;50.958;10.994;2023-04-07T05:52:56;4.70;;;2.97;;
29906;SDS011;16776;50.958;10.994;2023-04-07T05:55:22;5.00;;;3.03;;
29906;SDS011;16776;50.958;10.994;2023-04-07T05:57:49;4.07;;;2.42;;
29906;SDS011;16776;50.958;10.994;2023-04-07T06:00:18;4.90;;;3.10;;
29906;SDS011;16776;50.958;10.994;2023-04-07T06:02:49;3.15;;;2.30;;
29906;SDS011;16776;50.958;10.994;2023-04-07T06:05:15;5.40;;;3.22;;
29906;SDS011;16776;50.958;10.994;2023-04-07T06:07:42;5.85;;;3.70;;
29906;SDS011;16776;50.958;10.994;2023-04-07T06:10:08;6.28;;;3.67;;
29906;SDS011;16776;50.958;10.994;2023-04-07T06:12:35;7.22;;;3.47;;
29906;SDS011;16776;50.958;10.994;2023-04-07T06:15:01;6.50;;;3.15;;
29906;SDS011;16776;50.958;10.994;2023-04-07T06:17:28;4.57;;;3.13;;
29906;SDS011;16776;50.958;10.994;2023-04-07T06:19:56;4.97;;;3.20;;
29906;SDS011;16776;50.958;10.994;2023-04-07T06:22:23;4.45;;;2.75;;
29906;SDS011;16776;50.958;10.994;2023-04-07T06:24:49;3.47;;;3.13;;
29906;SDS011;16776;50.958;10.994;2023-04-07T06:27:16;2.55;;;2.33;;
29906;SDS011;16776;50.958;10.994;2023-04-07T06:29:43;3.58;;;2.58;;
29906;SDS011;16776;50.958;10.994;2023-04-07T06:32:12;3.92;;;2.72;;
29906;SDS011;16776;50.958;10.994;2023-04-07T06:34:39;4.75;;;2.60;;
29906;SDS011;16776;50.958;10.994;2023-04-07T06:37:07;4.20;;;2.63;;
29906;SDS011;16776;50.958;10.994;2023-04-07T06:39:34;6.78;;;2.38;;
29906;SDS011;16776;50.958;10.994;2023-04-07T06:42:02;5.85;;;2.42;;
29906;SDS011;16776;50.958;10.994;2023-04-07T06:44:28;5.22;;;3.15;;
29906;SDS011;16776;50.958;10.994;2023-04-07T06:46:55;4.90;;;2.78;;
29906;SDS011;16776;50.958;10.994;2023-04-07T06:49:22;5.25;;;2.88;;
29906;SDS011;16776;50.958;10.994;2023-04-07T06:51:48;4.07;;;2.70;;
29906;SDS011;16776;50.958;10.994;2023-04-07T06:54:16;4.88;;;3.50;;
29906;SDS011;16776;50.958;10.994;2023-04-07T06:56:43;3.90;;;3.13;;
29906;SDS011;16776;50.958;10.994;2023-04-07T06:59:09;5.35;;;3.70;;
29906;SDS011;16776;50.958;10.994;2023-04-07T07:01:38;4.72;;;3.38;;
29906;SDS011;16776;50.958;10.994;2023-04-07T07:04:04;4.55;;;3.67;;
29906;SDS011;16776;50.958;10.994;2023-04-07T07:06:31;4.53;;;3.13;;
29906;SDS011;16776;50.958;10.994;2023-04-07T07:08:58;4.28;;;3.53;;
29906;SDS011;16776;50.958;10.994;2023-04-07T07:11:26;4.78;;;3.60;;
29906;SDS011;16776;50.958;10.994;2023-04-07T07:13:54;6.15;;;3.83;;
29906;SDS011;16776;50.958;10.994;2023-04-07T07:16:21;6.78;;;4.20;;
29906;SDS011;16776;50.958;10.994;2023-04-07T07:18:48;6.07;;;4.10;;
29906;SDS011;16776;50.958;10.994;2023-04-07T07:21:16;6.03;;;4.35;;
29906;SDS011;16776;50.958;10.994;2023-04-07T07:23:42;4.78;;;3.47;;
29906;SDS011;16776;50.958;10.994;2023-04-07T07:26:09;4.90;;;4.25;;
29906;SDS011;16776;50.958;10.994;2023-04-07T07:28:37;4.63;;;3.75;;
29906;SDS011;16776;50.958;10.994;2023-04-07T07:31:07;4.55;;;3.70;;
29906;SDS011;16776;50.958;10.994;2023-04-07T07:33:36;5.85;;;4.20;;
29906;SDS011;16776;50.958;10.994;2023-04-07T07:36:04;3.97;;;3.58;;
29906;SDS011;16776;50.958;10.994;2023-04-07T07:38:31;5.30;;;3.40;;
29906;SDS011;16776;50.958;10.994;2023-04-07T07:40:58;4.93;;;3.45;;
29906;SDS011;16776;50.958;10.994;2023-04-07T07:43:24;4.28;;;3.17;;
29906;SDS011;16776;50.958;10.994;2023-04-07T07:45:52;5.35;;;3.78;;
29906;SDS011;16776;50.958;10.994;2023-04-07T07:48:19;4.38;;;3.50;;
29906;SDS011;16776;50.958;10.994;2023-04-07T07:50:45;4.57;;;3.45;;
29906;SDS011;16776;50.958;10.994;2023-04-07T07:53:16;4.50;;;3.50;;
29906;SDS011;16776;50.958;10.994;2023-04-07T07:55:44;5.68;;;4.18;;
29906;SDS011;16776;50.958;10.994;2023-04-07T07:58:12;4.93;;;3.85;;
29906;SDS011;16776;50.958;10.994;2023-04-07T08:00:38;5.35;;;3.30;;
29906;SDS011;16776;50.958;10.994;2023-04-07T08:03:06;4.72;;;3.88;;
29906;SDS011;16776;50.958;10.994;2023-04-07T08:05:35;4.15;;;3.42;;
29906;SDS011;16776;50.958;10.994;2023-04-07T08:08:02;3.85;;;3.05;;
29906;SDS011;16776;50.958;10.994;2023-04-07T08:10:29;4.10;;;3.40;;
29906;SDS011;16776;50.958;10.994;2023-04-07T08:12:55;4.95;;;3.83;;
29906;SDS011;16776;50.958;10.994;2023-04-07T08:15:22;4.95;;;3.60;;
29906;SDS011;16776;50.958;10.994;2023-04-07T08:17:48;4.90;;;3.38;;
29906;SDS011;16776;50.958;10.994;2023-04-07T08:20:16;5.28;;;3.60;;
29906;SDS011;16776;50.958;10.994;2023-04-07T08:22:43;4.65;;;3.95;;
29906;SDS011;16776;50.958;10.994;2023-04-07T08:25:10;5.80;;;4.32;;
29906;SDS011;16776;50.958;10.994;2023-04-07T08:27:36;7.22;;;4.03;;
29906;SDS011;16776;50.958;10.994;2023-04-07T08:30:04;4.75;;;4.00;;
29906;SDS011;16776;50.958;10.994;2023-04-07T08:32:35;5.35;;;3.67;;
29906;SDS011;16776;50.958;10.994;2023-04-07T08:35:02;5.72;;;4.53;;
29906;SDS011;16776;50.958;10.994;2023-04-07T08:37:31;5.63;;;4.18;;
29906;SDS011;16776;50.958;10.994;2023-04-07T08:39:58;4.63;;;4.00;;
29906;SDS011;16776;50.958;10.994;2023-04-07T08:42:26;5.20;;;4.10;;
29906;SDS011;16776;50.958;10.994;2023-04-07T08:44:54;5.00;;;3.95;;
29906;SDS011;16776;50.958;10.994;2023-04-07T08:47:22;5.28;;;4.78;;
29906;SDS011;16776;50.958;10.994;2023-04-07T08:49:51;4.68;;;4.20;;
29906;SDS011;16776;50.958;10.994;2023-04-07T08:52:22;4.65;;;3.55;;
29906;SDS011;16776;50.958;10.994;2023-04-07T08:54:57;5.63;;;4.30;;
29906;SDS011;16776;50.958;10.994;2023-04-07T08:57:26;5.85;;;4.53;;
29906;SDS011;16776;50.958;10.994;2023-04-07T08:59:55;5.85;;;4.03;;
29906;SDS011;16776;50.958;10.994;2023-04-07T09:02:28;6.20;;;4.07;;
29906;SDS011;16776;50.958;10.994;2023-04-07T09:04:56;4.22;;;3.45;;
29906;SDS011;16776;50.958;10.994;2023-04-07T09:07:22;5.20;;;4.07;;
29906;SDS011;16776;50.958;10.994;2023-04-07T09:09:50;5.72;;;4.63;;
29906;SDS011;16776;50.958;10.994;2023-04-07T09:12:18;5.10;;;3.78;;
29906;SDS011;16776;50.958;10.994;2023-04-07T09:14:45;5.55;;;4.88;;
29906;SDS011;16776;50.958;10.994;2023-04-07T09:17:11;6.45;;;4.63;;
29906;SDS011;16776;50.958;10.994;2023-04-07T09:19:38;7.00;;;4.72;;
29906;SDS011;16776;50.958;10.994;2023-04-07T09:22:05;5.95;;;4.28;;
29906;SDS011;16776;50.958;10.994;2023-04-07T09:24:32;7.28;;;4.50;;
29906;SDS011;16776;50.958;10.994;2023-04-07T09:27:08;4.80;;;4.25;;
29906;SDS011;16776;50.958;10.994;2023-04-07T09:29:40;6.55;;;4.93;;
29906;SDS011;16776;50.958;10.994;2023-04-07T09:32:08;7.00;;;5.07;;
29906;SDS011;16776;50.958;10.994;2023-04-07T09:34:35;5.90;;;4.28;;
29906;SDS011;16776;50.958;10.994;2023-04-07T09:37:03;5.65;;;4.45;;
29906;SDS011;16776;50.958;10.994;2023-04-07T09:39:31;6.50;;;4.97;;
29906;SDS011;16776;50.958;10.994;2023-04-07T09:41:58;5.80;;;4.72;;
29906;SDS011;16776;50.958;10.994;2023-04-07T09:44:38;6.53;;;5.18;;
29906;SDS011;16776;50.958;10.994;2023-04-07T09:49:32;6.38;;;4.82;;
29906;SDS011;16776;50.958;10.994;2023-04-07T09:52:14;6.53;;;4.95;;
29906;SDS011;16776;50.958;10.994;2023-04-07T09:54:41;5.75;;;4.60;;
29906;SDS011;16776;50.958;10.994;2023-04-07T09:57:08;7.95;;;5.07;;
29906;SDS011;16776;50.958;10.994;2023-04-07T09:59:38;6.35;;;5.13;;
29906;SDS011;16776;50.958;10.994;2023-04-07T10:02:07;7.18;;;5.15;;
29906;SDS011;16776;50.958;10.994;2023-04-07T10:04:34;6.30;;;5.38;;
29906;SDS011;16776;50.958;10.994;2023-04-07T10:07:01;7.18;;;5.15;;
29906;SDS011;16776;50.958;10.994;2023-04-07T10:09:28;8.23;;;5.28;;
29906;SDS011;16776;50.958;10.994;2023-04-07T10:11:56;8.65;;;6.15;;
29906;SDS011;16776;50.958;10.994;2023-04-07T10:14:25;7.18;;;5.57;;
29906;SDS011;16776;50.958;10.994;2023-04-07T10:16:53;9.38;;;6.10;;
29906;SDS011;16776;50.958;10.994;2023-04-07T10:19:21;6.78;;;5.00;;
29906;SDS011;16776;50.958;10.994;2023-04-07T10:21:49;7.50;;;5.05;;
29906;SDS011;16776;50.958;10.994;2023-04-07T10:24:29;7.32;;;5.03;;
29906;SDS011;16776;50.958;10.994;2023-04-07T10:27:20;7.05;;;4.90;;
29906;SDS011;16776;50.958;10.994;2023-04-07T10:29:49;4.55;;;3.90;;
29906;SDS011;16776;50.958;10.994;2023-04-07T10:32:18;6.90;;;5.30;;
29906;SDS011;16776;50.958;10.994;2023-04-07T10:34:58;6.95;;;5.28;;
29906;SDS011;16776;50.958;10.994;2023-04-07T10:37:28;4.85;;;4.15;;
29906;SDS011;16776;50.958;10.994;2023-04-07T10:42:55;7.20;;;4.90;;
29906;SDS011;16776;50.958;10.994;2023-04-07T10:48:23;5.75;;;4.18;;
29906;SDS011;16776;50.958;10.994;2023-04-07T10:57:03;5.70;;;4.18;;
29906;SDS011;16776;50.958;10.994;2023-04-07T10:59:37;5.10;;;3.70;;
29906;SDS011;16776;50.958;10.994;2023-04-07T11:04:58;6.85;;;4.43;;
29906;SDS011;16776;50.958;10.994;2023-04-07T11:10:30;6.07;;;4.28;;
29906;SDS011;16776;50.958;10.994;2023-04-07T11:12:58;5.95;;;3.83;;
29906;SDS011;16776;50.958;10.994;2023-04-07T11:15:25;5.13;;;4.07;;
29906;SDS011;16776;50.958;10.994;2023-04-07T11:18:08;4.93;;;3.83;;
29906;SDS011;16776;50.958;10.994;2023-04-07T11:20:40;7.38;;;5.07;;
29906;SDS011;16776;50.958;10.994;2023-04-07T11:23:08;5.35;;;3.92;;
29906;SDS011;16776;50.958;10.994;2023-04-07T11:25:37;8.25;;;4.10;;
29906;SDS011;16776;50.958;10.994;2023-04-07T11:28:04;5.13;;;4.20;;
29906;SDS011;16776;50.958;10.994;2023-04-07T11:30:35;5.50;;;4.03;;
29906;SDS011;16776;50.958;10.994;2023-04-07T11:33:02;6.03;;;3.63;;
29906;SDS011;16776;50.958;10.994;2023-04-07T11:35:32;5.40;;;4.25;;
29906;SDS011;16776;50.958;10.994;2023-04-07T11:37:59;4.72;;;4.10;;
29906;SDS011;16776;50.958;10.994;2023-04-07T11:40:31;3.30;;;3.00;;
29906;SDS011;16776;50.958;10.994;2023-04-07T11:43:00;4.40;;;3.37;;
29906;SDS011;16776;50.958;10.994;2023-04-07T11:45:27;3.90;;;3.28;;
29906;SDS011;16776;50.958;10.994;2023-04-07T11:47:54;6.20;;;4.40;;
29906;SDS011;16776;50.958;10.994;2023-04-07T11:50:37;6.05;;;4.38;;
29906;SDS011;16776;50.958;10.994;2023-04-07T11:53:04;5.22;;;4.32;;
29906;SDS011;16776;50.958;10.994;2023-04-07T11:55:31;5.95;;;4.97;;
29906;SDS011;16776;50.958;10.994;2023-04-07T11:58:05;4.90;;;4.38;;
29906;SDS011;16776;50.958;10.994;2023-04-07T12:00:36;4.72;;;3.47;;
29906;SDS011;16776;50.958;10.994;2023-04-07T12:03:21;4.60;;;3.42;;
29906;SDS011;16776;50.958;10.994;2023-04-07T12:05:48;4.47;;;3.35;;
29906;SDS011;16776;50.958;10.994;2023-04-07T12:08:16;5.13;;;4.40;;
29906;SDS011;16776;50.958;10.994;2023-04-07T12:10:46;3.95;;;3.45;;
29906;SDS011;16776;50.958;10.994;2023-04-07T12:13:14;3.97;;;3.58;;
29906;SDS011;16776;50.958;10.994;2023-04-07T12:15:41;3.75;;;3.15;;
29906;SDS011;16776;50.958;10.994;2023-04-07T12:18:13;4.20;;;3.40;;
29906;SDS011;16776;50.958;10.994;2023-04-07T12:20:46;5.60;;;4.32;;
29906;SDS011;16776;50.958;10.994;2023-04-07T12:23:12;4.80;;;4.35;;
29906;SDS011;16776;50.958;10.994;2023-04-07T12:25:39;4.00;;;3.60;;
29906;SDS011;16776;50.958;10.994;2023-04-07T12:28:06;5.75;;;4.03;;
29906;SDS011;16776;50.958;10.994;2023-04-07T12:30:34;4.72;;;3.90;;
29906;SDS011;16776;50.958;10.994;2023-04-07T12:33:03;4.45;;;3.70;;
29906;SDS011;16776;50.958;10.994;2023-04-07T12:35:31;5.65;;;4.07;;
29906;SDS011;16776;50.958;10.994;2023-04-07T12:37:57;4.18;;;3.55;;
29906;SDS011;16776;50.958;10.994;2023-04-07T12:40:24;5.10;;;3.92;;
29906;SDS011;16776;50.958;10.994;2023-04-07T12:42:51;4.55;;;3.38;;
29906;SDS011;16776;50.958;10.994;2023-04-07T12:45:17;4.47;;;3.17;;
29906;SDS011;16776;50.958;10.994;2023-04-07T12:47:45;4.07;;;3.28;;
29906;SDS011;16776;50.958;10.994;2023-04-07T12:50:12;3.15;;;2.90;;
29906;SDS011;16776;50.958;10.994;2023-04-07T12:52:40;4.00;;;3.47;;
29906;SDS011;16776;50.958;10.994;2023-04-07T12:55:07;4.38;;;3.47;;
29906;SDS011;16776;50.958;10.994;2023-04-07T12:57:33;4.63;;;3.75;;
29906;SDS011;16776;50.958;10.994;2023-04-07T13:00:01;4.78;;;4.20;;
29906;SDS011;16776;50.958;10.994;2023-04-07T13:02:28;4.07;;;3.17;;
29906;SDS011;16776;50.958;10.994;2023-04-07T13:04:56;4.68;;;3.60;;
29906;SDS011;16776;50.958;10.994;2023-04-07T13:07:23;4.10;;;3.40;;
29906;SDS011;16776;50.958;10.994;2023-04-07T13:09:49;5.00;;;3.53;;
29906;SDS011;16776;50.958;10.994;2023-04-07T13:12:16;3.75;;;3.35;;
29906;SDS011;16776;50.958;10.994;2023-04-07T13:14:42;4.72;;;3.45;;
29906;SDS011;16776;50.958;10.994;2023-04-07T13:17:09;3.58;;;3.28;;
29906;SDS011;16776;50.958;10.994;2023-04-07T13:19:36;4.18;;;3.17;;
29906;SDS011;16776;50.958;10.994;2023-04-07T13:22:05;3.80;;;3.17;;
29906;SDS011;16776;50.958;10.994;2023-04-07T13:24:32;4.07;;;3.67;;
29906;SDS011;16776;50.958;10.994;2023-04-07T13:26:59;3.30;;;2.78;;
29906;SDS011;16776;50.958;10.994;2023-04-07T13:29:26;4.15;;;3.75;;
29906;SDS011;16776;50.958;10.994;2023-04-07T13:31:59;5.75;;;3.90;;
29906;SDS011;16776;50.958;10.994;2023-04-07T13:34:30;3.60;;;3.28;;
29906;SDS011;16776;50.958;10.994;2023-04-07T13:36:56;3.50;;;3.20;;
29906;SDS011;16776;50.958;10.994;2023-04-07T13:39:24;3.70;;;3.00;;
29906;SDS011;16776;50.958;10.994;2023-04-07T13:41:51;6.28;;;3.17;;
29906;SDS011;16776;50.958;10.994;2023-04-07T13:44:17;3.72;;;3.30;;
29906;SDS011;16776;50.958;10.994;2023-04-07T13:46:44;4.78;;;3.33;;
29906;SDS011;16776;50.958;10.994;2023-04-07T13:49:11;3.92;;;3.58;;
29906;SDS011;16776;50.958;10.994;2023-04-07T13:51:38;4.32;;;3.25;;
29906;SDS011;16776;50.958;10.994;2023-04-07T13:54:06;4.90;;;2.95;;
29906;SDS011;16776;50.958;10.994;2023-04-07T13:56:36;3.20;;;2.90;;
29906;SDS011;16776;50.958;10.994;2023-04-07T13:59:04;4.45;;;2.85;;
29906;SDS011;16776;50.958;10.994;2023-04-07T14:01:31;5.00;;;3.33;;
29906;SDS011;16776;50.958;10.994;2023-04-07T14:03:59;4.55;;;3.15;;
29906;SDS011;16776;50.958;10.994;2023-04-07T14:06:27;4.32;;;3.58;;
29906;SDS011;16776;50.958;10.994;2023-04-07T14:08:53;4.35;;;3.40;;
29906;SDS011;16776;50.958;10.994;2023-04-07T14:11:20;3.65;;;3.35;;
29906;SDS011;16776;50.958;10.994;2023-04-07T14:13:49;3.92;;;3.30;;
29906;SDS011;16776;50.958;10.994;2023-04-07T14:16:16;3.90;;;3.28;;
29906;SDS011;16776;50.958;10.994;2023-04-07T14:18:43;4.05;;;3.63;;
29906;SDS011;16776;50.958;10.994;2023-04-07T14:21:10;3.35;;;2.72;;
29906;SDS011;16776;50.958;10.994;2023-04-07T14:23:37;3.72;;;3.00;;
29906;SDS011;16776;50.958;10.994;2023-04-07T14:26:03;3.17;;;2.88;;
29906;SDS011;16776;50.958;10.994;2023-04-07T14:28:30;2.72;;;2.53;;
29906;SDS011;16776;50.958;10.994;2023-04-07T14:30:58;3.63;;;3.00;;
29906;SDS011;16776;50.958;10.994;2023-04-07T14:33:25;3.58;;;2.88;;
29906;SDS011;16776;50.958;10.994;2023-04-07T14:35:51;3.10;;;2.80;;
29906;SDS011;16776;50.958;10.994;2023-04-07T14:38:18;3.25;;;2.83;;
29906;SDS011;16776;50.958;10.994;2023-04-07T14:40:48;3.08;;;2.78;;
29906;SDS011;16776;50.958;10.994;2023-04-07T14:43:14;3.35;;;2.75;;
29906;SDS011;16776;50.958;10.994;2023-04-07T14:45:46;4.00;;;2.85;;
29906;SDS011;16776;50.958;10.994;2023-04-07T14:48:14;5.05;;;3.35;;
29906;SDS011;16776;50.958;10.994;2023-04-07T14:50:41;4.25;;;3.25;;
29906;SDS011;16776;50.958;10.994;2023-04-07T14:53:08;3.42;;;2.80;;
29906;SDS011;16776;50.958;10.994;2023-04-07T14:55:34;5.30;;;3.22;;
29906;SDS011;16776;50.958;10.994;2023-04-07T14:58:01;3.55;;;2.90;;